createdAt,value
2018-06-25T00:00:41.874Z,61.10
2018-06-25T00:03:12.725Z,60.70
2018-06-25T00:05:43.491Z,60.60
2018-06-25T00:10:44.275Z,60.80
2018-06-25T00:15:45.070Z,61.70
2018-06-25T00:18:15.911Z,61.30
2018-06-25T00:20:46.695Z,61.70
2018-06-25T00:23:17.491Z,61.50
2018-06-25T00:25:48.271Z,61.40
2018-06-25T00:28:19.137Z,61.50
2018-06-25T00:30:49.946Z,61.60
2018-06-25T00:33:20.879Z,61.70
2018-06-25T00:35:52.140Z,61.80
2018-06-25T00:38:22.936Z,61.70
2018-06-25T00:40:53.746Z,61.80
2018-06-25T00:43:24.549Z,62.10
2018-06-25T00:45:55.501Z,62.10
2018-06-25T00:48:26.331Z,62.20
2018-06-25T00:50:57.113Z,62.50
2018-06-25T00:53:27.916Z,62.50
2018-06-25T00:55:58.646Z,62.60
2018-06-25T00:58:33.792Z,62.60
2018-06-25T01:01:04.817Z,62.70
2018-06-25T01:03:35.633Z,62.60
2018-06-25T01:06:06.557Z,62.50
2018-06-25T01:08:37.614Z,62.50
2018-06-25T01:11:08.401Z,62.70
2018-06-25T01:13:39.218Z,62.70
2018-06-25T01:16:10.030Z,62.90
2018-06-25T01:18:40.838Z,63.20
2018-06-25T01:21:11.655Z,63.10
2018-06-25T01:23:42.433Z,63.30
2018-06-25T01:26:13.202Z,63.20
2018-06-25T01:28:44.043Z,63.20
2018-06-25T01:31:14.799Z,63.40
2018-06-25T01:33:45.599Z,63.40
2018-06-25T01:36:16.406Z,63.40
2018-06-25T01:38:47.193Z,63.40
2018-06-25T01:41:18.095Z,63.70
2018-06-25T01:46:18.818Z,64.10
2018-06-25T01:48:49.538Z,64.10
2018-06-25T01:51:20.642Z,64.10
2018-06-25T01:53:51.376Z,64.30
2018-06-25T01:58:53.058Z,64.50
2018-06-25T02:01:23.799Z,64.50
2018-06-25T02:03:54.845Z,64.50
2018-06-25T02:06:25.658Z,64.70
2018-06-25T02:08:56.454Z,65.50
2018-06-25T02:11:27.190Z,65.20
2018-06-25T02:13:58.278Z,65.20
2018-06-25T02:18:58.962Z,65.70
2018-06-25T02:21:29.934Z,65.90
2018-06-25T02:24:00.754Z,65.90
2018-06-25T02:26:31.638Z,65.80
2018-06-25T02:29:02.553Z,65.80
2018-06-25T02:31:33.375Z,65.80
2018-06-25T02:34:04.157Z,65.80
2018-06-25T02:36:37.247Z,65.80
2018-06-25T02:39:11.389Z,65.80
2018-06-25T02:41:42.212Z,65.80
2018-06-25T02:46:43.283Z,66.70
2018-06-25T02:49:14.082Z,65.80
2018-06-25T02:51:44.798Z,65.80
2018-06-25T02:54:16.630Z,65.80
2018-06-25T02:59:17.861Z,67.90
2018-06-25T03:01:48.686Z,68.30
2018-06-25T03:04:19.695Z,68.60
2018-06-25T03:06:50.523Z,68.70
2018-06-25T03:09:21.324Z,68.80
2018-06-25T03:11:52.517Z,68.70
2018-06-25T03:14:23.181Z,68.40
2018-06-25T03:16:54.200Z,68.20
2018-06-25T03:19:24.897Z,68.40
2018-06-25T03:21:55.648Z,68.80
2018-06-25T03:24:26.365Z,68.40
2018-06-25T03:26:57.157Z,68.50
2018-06-25T03:29:27.897Z,68.60
2018-06-25T03:31:58.642Z,68.60
2018-06-25T03:34:29.374Z,68.50
2018-06-25T03:37:00.098Z,68.50
2018-06-25T03:39:30.829Z,68.30
2018-06-25T03:42:01.666Z,68.40
2018-06-25T03:44:32.466Z,68.40
2018-06-25T03:47:03.227Z,68.40
2018-06-25T03:49:34.141Z,67.90
2018-06-25T03:52:05.138Z,67.80
2018-06-25T03:54:35.842Z,67.80
2018-06-25T03:57:06.665Z,67.20
2018-06-25T03:59:37.566Z,67.90
2018-06-25T04:02:08.322Z,67.40
2018-06-25T04:04:39.082Z,67.50
2018-06-25T04:07:10.328Z,67.60
2018-06-25T04:09:41.446Z,67.60
2018-06-25T04:12:12.322Z,66.90
2018-06-25T04:14:42.978Z,66.70
2018-06-25T04:19:43.690Z,66.80
2018-06-25T04:22:14.502Z,66.20
2018-06-25T04:24:45.350Z,66.20
2018-06-25T04:27:16.168Z,65.80
2018-06-25T04:29:47.105Z,65.70
2018-06-25T04:32:17.934Z,65.60
2018-06-25T04:37:18.965Z,64.90
2018-06-25T04:39:49.734Z,64.60
2018-06-25T04:44:50.702Z,64.30
2018-06-25T04:49:51.444Z,64.20
2018-06-25T04:52:22.260Z,63.90
2018-06-25T04:54:53.113Z,63.20
2018-06-25T04:57:24.257Z,62.60
2018-06-25T04:59:55.128Z,62.00
2018-06-25T05:02:25.989Z,61.60
2018-06-25T05:04:56.805Z,61.20
2018-06-25T05:09:57.841Z,60.30
2018-06-25T05:12:28.621Z,59.90
2018-06-25T05:14:59.421Z,59.90
2018-06-25T05:17:30.205Z,60.00
2018-06-25T05:20:01.014Z,60.00
2018-06-25T05:25:01.750Z,59.60
2018-06-25T05:27:32.467Z,59.60
2018-06-25T05:30:03.345Z,59.20
2018-06-25T05:32:34.118Z,58.70
2018-06-25T05:35:05.034Z,59.50
2018-06-25T05:40:05.869Z,56.40
2018-06-25T05:42:36.665Z,56.00
2018-06-25T05:45:07.529Z,55.50
2018-06-25T05:50:08.733Z,55.20
2018-06-25T05:52:39.475Z,54.90
2018-06-25T05:55:10.415Z,54.50
2018-06-25T05:57:41.180Z,54.30
2018-06-25T06:00:12.122Z,54.40
2018-06-25T06:02:42.961Z,54.10
2018-06-25T06:05:13.754Z,54.00
2018-06-25T06:10:15.022Z,52.80
2018-06-25T06:12:45.837Z,52.60
2018-06-25T06:15:16.622Z,52.20
2018-06-25T06:17:47.859Z,52.20
2018-06-25T06:22:48.561Z,52.20
2018-06-25T06:25:19.349Z,51.80
2018-06-25T06:27:50.214Z,51.50
2018-06-25T06:30:21.124Z,51.20
2018-06-25T06:32:51.861Z,50.80
2018-06-25T06:35:22.939Z,50.40
2018-06-25T06:37:53.749Z,49.80
2018-06-25T06:42:55.427Z,48.20
2018-06-25T06:45:28.963Z,48.80
2018-06-25T06:48:00.086Z,48.90
2018-06-25T06:50:30.882Z,48.30
2018-06-25T06:53:01.778Z,48.10
2018-06-25T06:58:02.531Z,48.00
2018-06-25T07:00:33.652Z,47.30
2018-06-25T07:03:04.853Z,47.80
2018-06-25T07:05:35.748Z,47.70
2018-06-25T07:08:06.581Z,47.60
2018-06-25T07:10:37.458Z,47.00
2018-06-25T07:13:09.463Z,46.80
2018-06-25T07:15:40.286Z,46.50
2018-06-25T07:18:12.440Z,45.80
2018-06-25T07:20:43.382Z,45.90
2018-06-25T07:23:14.134Z,45.70
2018-06-25T07:25:44.874Z,45.10
2018-06-25T07:28:16.120Z,45.90
2018-06-25T07:30:46.941Z,45.20
2018-06-25T07:33:17.744Z,44.90
2018-06-25T07:40:49.049Z,44.10
2018-06-25T07:43:20.260Z,44.00
2018-06-25T07:45:52.204Z,43.80
2018-06-25T07:48:23.384Z,43.70
2018-06-25T07:50:54.435Z,43.20
2018-06-25T07:53:25.846Z,42.70
2018-06-25T07:55:57.180Z,42.80
2018-06-25T07:58:29.510Z,42.80
2018-06-25T08:01:00.589Z,41.90
2018-06-25T08:03:31.777Z,41.50
2018-06-25T08:06:03.734Z,41.70
2018-06-25T08:08:35.367Z,41.70
2018-06-25T08:11:06.494Z,41.10
2018-06-25T08:13:37.501Z,41.50
2018-06-25T08:16:08.562Z,41.70
2018-06-25T08:21:10.457Z,42.00
2018-06-25T08:26:13.337Z,41.60
2018-06-25T08:28:44.355Z,41.60
2018-06-25T08:31:15.441Z,40.20
2018-06-25T08:36:21.169Z,40.70
2018-06-25T08:38:52.288Z,40.70
2018-06-25T08:41:23.611Z,40.60
2018-06-25T08:43:54.882Z,40.40
2018-06-25T08:46:26.406Z,40.90
2018-06-25T08:48:58.540Z,40.40
2018-06-25T08:51:31.084Z,40.20
2018-06-25T08:54:02.438Z,39.60
2018-06-25T08:56:33.548Z,40.40
2018-06-25T08:59:05.083Z,40.50
2018-06-25T09:01:36.069Z,40.20
2018-06-25T09:04:08.202Z,40.70
2018-06-25T09:06:39.345Z,40.60
2018-06-25T09:09:12.337Z,40.60
2018-06-25T09:11:44.352Z,40.90
2018-06-25T09:14:15.804Z,40.30
2018-06-25T09:16:46.818Z,40.00
2018-06-25T09:19:18.780Z,39.00
2018-06-25T09:21:49.813Z,39.10
2018-06-25T09:24:20.915Z,39.50
2018-06-25T09:26:52.910Z,39.60
2018-06-25T09:29:24.381Z,39.40
2018-06-25T09:31:55.767Z,38.80
2018-06-25T09:34:31.669Z,38.60
2018-06-25T09:37:02.791Z,38.30
2018-06-25T09:39:35.587Z,38.40
2018-06-25T09:42:06.605Z,38.50
2018-06-25T09:44:37.702Z,38.40
2018-06-25T09:47:09.407Z,38.20
2018-06-25T09:49:40.482Z,38.00
2018-06-25T09:52:11.634Z,37.40
2018-06-25T09:54:42.690Z,37.50
2018-06-25T09:57:13.747Z,37.20
2018-06-25T09:59:46.343Z,37.30
2018-06-25T10:02:17.625Z,36.60
2018-06-25T10:04:48.802Z,36.50
2018-06-25T10:07:20.160Z,37.10
2018-06-25T10:09:51.846Z,36.90
2018-06-25T10:12:23.815Z,36.90
2018-06-25T10:14:55.608Z,36.80
2018-06-25T10:17:26.633Z,36.80
2018-06-25T10:22:27.844Z,37.20
2018-06-25T10:24:59.330Z,36.90
2018-06-25T10:27:31.317Z,36.50
2018-06-25T10:32:32.376Z,35.90
2018-06-25T10:35:03.433Z,35.40
2018-06-25T10:37:34.517Z,35.00
2018-06-25T10:40:05.842Z,34.90
2018-06-25T10:42:38.046Z,35.20
2018-06-25T10:45:09.092Z,34.60
2018-06-25T10:47:40.233Z,34.60
2018-06-25T10:50:11.214Z,34.50
2018-06-25T10:52:42.259Z,35.10
2018-06-25T10:55:14.069Z,34.90
2018-06-25T10:57:51.017Z,34.40
2018-06-25T11:00:22.286Z,34.40
2018-06-25T11:02:52.977Z,34.80
2018-06-25T11:05:24.772Z,35.10
2018-06-25T11:07:55.759Z,35.30
2018-06-25T11:10:27.398Z,35.60
2018-06-25T11:12:58.489Z,36.00
2018-06-25T11:15:29.639Z,35.80
2018-06-25T11:18:00.721Z,35.70
2018-06-25T11:20:31.723Z,35.00
2018-06-25T11:23:02.712Z,35.20
2018-06-25T11:25:34.737Z,35.30
2018-06-25T11:28:06.575Z,35.40
2018-06-25T11:30:37.690Z,35.00
2018-06-25T11:33:08.729Z,34.60
2018-06-25T11:35:39.808Z,34.90
2018-06-25T11:38:10.832Z,34.30
2018-06-25T11:40:41.862Z,34.30
2018-06-25T11:43:13.024Z,34.80
2018-06-25T11:45:44.294Z,34.40
2018-06-25T11:48:15.873Z,34.80
2018-06-25T11:50:47.383Z,34.90
2018-06-25T11:53:18.435Z,34.90
2018-06-25T11:55:49.468Z,35.00
2018-06-25T11:58:20.628Z,35.00
2018-06-25T12:00:51.564Z,34.70
2018-06-25T12:03:23.045Z,35.20
2018-06-25T12:05:54.151Z,35.20
2018-06-25T12:08:25.294Z,35.10
2018-06-25T12:10:56.651Z,34.60
2018-06-25T12:13:28.293Z,34.70
2018-06-25T12:15:59.305Z,34.40
2018-06-25T12:18:30.832Z,33.70
2018-06-25T12:21:02.543Z,33.70
2018-06-25T12:23:34.169Z,33.50
2018-06-25T12:26:05.116Z,33.60
2018-06-25T12:28:37.134Z,34.10
2018-06-25T12:31:08.976Z,34.20
2018-06-25T12:33:39.935Z,34.20
2018-06-25T12:36:12.991Z,34.20
2018-06-25T12:41:15.647Z,34.80
2018-06-25T12:43:47.817Z,35.20
2018-06-25T12:46:19.088Z,35.30
2018-06-25T12:48:50.334Z,34.70
2018-06-25T12:51:22.473Z,34.30
2018-06-25T12:53:54.958Z,34.30
2018-06-25T12:56:26.115Z,34.90
2018-06-25T12:58:57.720Z,35.00
2018-06-25T13:04:00.055Z,34.90
2018-06-25T13:06:32.216Z,34.80
2018-06-25T13:09:04.608Z,34.80
2018-06-25T13:11:36.739Z,35.40
2018-06-25T13:14:07.880Z,34.90
2018-06-25T13:16:39.296Z,34.90
2018-06-25T13:19:12.877Z,35.10
2018-06-25T13:21:43.898Z,35.30
2018-06-25T13:24:14.819Z,35.60
2018-06-25T13:26:46.911Z,36.50
2018-06-25T13:29:17.798Z,35.90
2018-06-25T13:31:48.769Z,36.20
2018-06-25T13:34:20.200Z,36.10
2018-06-25T13:39:21.718Z,36.50
2018-06-25T13:41:54.058Z,36.50
2018-06-25T13:44:25.470Z,36.60
2018-06-25T13:46:56.308Z,36.40
2018-06-25T13:49:26.989Z,36.50
2018-06-25T13:54:28.826Z,36.80
2018-06-25T13:57:00.201Z,37.00
2018-06-25T13:59:31.213Z,37.00
2018-06-25T14:02:01.898Z,37.40
2018-06-25T14:04:34.565Z,37.50
2018-06-25T14:07:05.673Z,37.70
2018-06-25T14:09:37.529Z,37.70
2018-06-25T14:12:08.378Z,37.80
2018-06-25T14:14:39.589Z,37.80
2018-06-25T14:19:42.054Z,38.60
2018-06-25T14:22:13.250Z,38.60
2018-06-25T14:24:48.762Z,38.60
2018-06-25T14:27:20.097Z,38.60
2018-06-25T14:29:51.334Z,38.50
2018-06-25T14:32:27.056Z,38.50
2018-06-25T14:35:02.685Z,38.50
2018-06-25T14:37:35.676Z,38.40
2018-06-25T14:40:06.536Z,38.80
2018-06-25T14:42:37.229Z,39.00
2018-06-25T14:45:08.108Z,38.90
2018-06-25T14:47:38.842Z,39.00
2018-06-25T14:50:09.563Z,38.80
2018-06-25T14:52:40.531Z,39.30
2018-06-25T14:55:11.314Z,39.50
2018-06-25T14:57:42.024Z,39.40
2018-06-25T15:00:16.815Z,39.40
2018-06-25T15:07:50.413Z,40.10
2018-06-25T15:10:21.093Z,40.00
2018-06-25T15:12:52.501Z,40.20
2018-06-25T15:15:23.262Z,40.30
2018-06-25T15:20:24.728Z,40.30
2018-06-25T15:22:56.028Z,40.30
2018-06-25T15:25:27.415Z,40.40
2018-06-25T15:27:58.654Z,40.30
2018-06-25T15:30:30.455Z,40.20
2018-06-25T15:33:01.936Z,40.20
2018-06-25T15:35:33.334Z,40.90
2018-06-25T15:38:04.389Z,40.10
2018-06-25T15:40:35.490Z,40.80
2018-06-25T15:43:06.564Z,40.00
2018-06-25T15:45:37.676Z,40.30
2018-06-25T15:48:09.730Z,40.50
2018-06-25T15:50:40.966Z,40.50
2018-06-25T15:53:11.949Z,40.60
2018-06-25T15:55:43.515Z,40.80
2018-06-25T15:58:14.805Z,40.80
2018-06-25T16:00:46.853Z,40.80
2018-06-25T16:03:18.106Z,40.90
2018-06-25T16:05:50.006Z,41.00
2018-06-25T16:08:21.631Z,40.90
2018-06-25T16:13:22.958Z,41.50
2018-06-25T16:15:54.893Z,41.10
2018-06-25T16:18:26.674Z,41.40
2018-06-25T16:20:57.499Z,41.20
2018-06-25T16:23:28.270Z,40.90
2018-06-25T16:25:58.967Z,41.20
2018-06-25T16:28:29.682Z,41.30
2018-06-25T16:33:30.389Z,40.70
2018-06-25T16:36:01.098Z,40.70
2018-06-25T16:38:31.985Z,40.90
2018-06-25T16:41:03.236Z,40.90
2018-06-25T16:43:34.019Z,40.80
2018-06-25T16:48:34.772Z,41.30
2018-06-25T16:51:05.715Z,41.00
2018-06-25T16:53:36.469Z,41.10
2018-06-25T16:56:07.574Z,41.00
2018-06-25T16:58:38.409Z,40.90
2018-06-25T17:01:09.532Z,40.90
2018-06-25T17:03:40.292Z,41.30
2018-06-25T17:06:11.121Z,41.50
2018-06-25T17:08:41.909Z,41.50
2018-06-25T17:11:13.043Z,41.50
2018-06-25T17:13:43.761Z,41.70
2018-06-25T17:16:14.670Z,42.40
2018-06-25T17:18:45.382Z,41.60
2018-06-25T17:21:17.486Z,41.80
2018-06-25T17:26:19.472Z,42.20
2018-06-25T17:28:50.874Z,42.30
2018-06-25T17:31:23.034Z,42.40
2018-06-25T17:36:23.725Z,42.50
2018-06-25T17:38:54.462Z,42.30
2018-06-25T17:41:25.177Z,42.40
2018-06-25T17:43:56.660Z,42.60
2018-06-25T17:46:27.410Z,42.80
2018-06-25T17:51:28.142Z,43.10
2018-06-25T17:53:58.887Z,43.00
2018-06-25T17:56:29.687Z,43.00
2018-06-25T18:01:30.929Z,43.10
2018-06-25T18:04:01.980Z,43.10
2018-06-25T18:09:03.577Z,43.90
2018-06-25T18:11:34.351Z,43.30
2018-06-25T18:14:05.822Z,43.40
2018-06-25T18:16:36.804Z,43.70
2018-06-25T18:24:09.106Z,43.70
2018-06-25T18:26:40.352Z,43.70
2018-06-25T18:29:12.119Z,43.50
2018-06-25T18:31:43.309Z,43.50
2018-06-25T18:34:14.414Z,43.70
2018-06-25T18:39:18.921Z,44.60
2018-06-25T18:44:20.217Z,42.90
2018-06-25T18:46:51.342Z,43.00
2018-06-25T18:49:22.434Z,42.80
2018-06-25T18:54:24.522Z,43.20
2018-06-25T18:56:55.869Z,42.70
2018-06-25T18:59:28.206Z,43.00
2018-06-25T19:01:59.650Z,42.90
2018-06-25T19:04:30.809Z,42.30
2018-06-25T19:07:02.300Z,42.20
2018-06-25T19:12:04.299Z,42.30
2018-06-25T19:14:35.273Z,42.40
2018-06-25T19:17:06.514Z,42.70
2018-06-25T19:19:37.438Z,43.00
2018-06-25T19:22:08.754Z,43.00
2018-06-25T19:27:10.102Z,43.00
2018-06-25T19:29:42.250Z,43.50
2018-06-25T19:32:13.201Z,43.50
2018-06-25T19:34:45.448Z,43.60
2018-06-25T19:39:52.011Z,43.30
2018-06-25T19:42:22.823Z,43.10
2018-06-25T19:44:53.643Z,42.90
2018-06-25T19:47:24.366Z,42.80
2018-06-25T19:49:55.087Z,43.30
2018-06-25T19:52:25.957Z,43.40
2018-06-25T19:54:56.686Z,44.50
2018-06-25T19:57:27.457Z,44.30
2018-06-25T19:59:58.193Z,44.50
2018-06-25T20:02:29.033Z,44.70
2018-06-25T20:05:00.361Z,45.10
2018-06-25T20:07:31.124Z,45.50
2018-06-25T20:10:02.094Z,46.00
2018-06-25T20:12:32.909Z,46.50
2018-06-25T20:15:04.078Z,46.30
2018-06-25T20:17:36.178Z,46.30
2018-06-25T20:20:08.626Z,47.00
2018-06-25T20:22:40.026Z,47.50
2018-06-25T20:25:11.451Z,47.90
2018-06-25T20:27:42.750Z,48.10
2018-06-25T20:30:14.023Z,48.30
2018-06-25T20:32:46.409Z,48.50
2018-06-25T20:35:17.676Z,48.50
2018-06-25T20:37:49.457Z,48.80
2018-06-25T20:40:20.932Z,49.00
2018-06-25T20:42:52.213Z,49.30
2018-06-25T20:45:23.266Z,50.00
2018-06-25T20:47:54.417Z,50.30
2018-06-25T20:50:25.329Z,50.70
2018-06-25T20:52:56.734Z,50.90
2018-06-25T20:55:27.817Z,51.00
2018-06-25T20:57:58.861Z,51.20
2018-06-25T21:00:29.797Z,50.60
2018-06-25T21:03:00.747Z,50.30
2018-06-25T21:05:31.845Z,50.30
2018-06-25T21:08:03.067Z,50.50
2018-06-25T21:10:34.560Z,51.00
2018-06-25T21:13:05.921Z,51.40
2018-06-25T21:15:36.794Z,51.40
2018-06-25T21:18:08.573Z,51.70
2018-06-25T21:23:09.812Z,52.00
2018-06-25T21:25:41.165Z,52.10
2018-06-25T21:28:11.846Z,52.40
2018-06-25T21:30:42.525Z,52.60
2018-06-25T21:33:13.230Z,53.20
2018-06-25T21:35:44.337Z,53.40
2018-06-25T21:38:16.111Z,53.30
2018-06-25T21:43:19.639Z,53.80
2018-06-25T21:45:50.734Z,54.70
2018-06-25T21:48:22.374Z,54.10
2018-06-25T21:50:56.927Z,54.30
2018-06-25T21:53:29.801Z,54.40
2018-06-25T21:56:01.896Z,54.50
2018-06-25T22:01:04.910Z,54.80
2018-06-25T22:08:36.466Z,55.30
2018-06-25T22:11:07.690Z,55.40
2018-06-25T22:13:38.893Z,55.60
2018-06-25T22:16:10.266Z,55.70
2018-06-25T22:18:41.359Z,55.90
2018-06-25T22:21:12.555Z,55.90
2018-06-25T22:26:13.874Z,56.30
2018-06-25T22:28:45.539Z,56.20
2018-06-25T22:31:17.421Z,56.50
2018-06-25T22:33:48.634Z,56.50
2018-06-25T22:36:19.826Z,56.70
2018-06-25T22:38:50.897Z,56.80
2018-06-25T22:41:22.129Z,57.20
2018-06-25T22:43:53.549Z,57.60
2018-06-25T22:46:25.569Z,57.90
2018-06-25T22:48:56.763Z,58.20
2018-06-25T22:51:27.738Z,58.60
2018-06-25T22:56:29.222Z,59.40
2018-06-25T23:01:31.373Z,60.00
2018-06-25T23:04:02.446Z,60.40
2018-06-25T23:09:04.950Z,60.90
2018-06-25T23:14:07.309Z,60.90
2018-06-25T23:16:38.093Z,60.90
2018-06-25T23:19:08.792Z,60.90
2018-06-25T23:21:39.436Z,60.90
2018-06-25T23:24:10.209Z,60.90
2018-06-25T23:26:40.877Z,60.90
2018-06-25T23:29:12.022Z,60.90
2018-06-25T23:31:43.038Z,60.40
2018-06-25T23:34:13.809Z,60.00
2018-06-25T23:36:44.510Z,59.90
2018-06-25T23:39:15.701Z,59.50
2018-06-25T23:41:46.389Z,59.20
2018-06-25T23:44:17.479Z,59.00
2018-06-25T23:46:49.611Z,58.80
2018-06-25T23:49:20.321Z,59.60
2018-06-25T23:54:21.374Z,58.90
